Mullin, Texas
Current Conditions -  °F | °C
As of 10:35 AM on Friday 31 Oct 2014 (Local Time) from KBWD Reporting Station
Clear Clear  
Wind Chill: 63°   Ceiling: Unl
Heat Index: 63°   Visibility: 10mi
Dew Point: 39°   Wind: 10mph
Humidity: 42%   Direction: 30°NNE
Pressure: 30.37"   Gusts: 18mph
Location:  31.56°N, 98.67°W
Report Text: KBWD 311535Z AUTO 03009G16KT 10SM CLR 17/04 A3037 RMK AO2
Loading
Personal Weather Stations






























Interactive Weather Map
Tropical Storm Tracking
New forecast layout! Learn more

10-Day Weather Forecast

Advertisements
Track Severe Weather on mobile